Flight Track Log - Related Links

Times and Time Zones

All times are in EDT time to prevent confusion due to time zone crossing. See the GUG700 flight status page for this flight to view local times or setup timezone preferences in your user account.


Time Position Orientation Groundspeed Altitude Reporting Facility
EDT Latitude Longitude Course Direction KTS MPH feet Rate Location/Type
Sat 07:17:32 PM 14.2325 -88.2719 279° West  Level Estimated
Sat 07:18:32 PM 14.2422 -88.3321 279° West  Level Estimated
Sat 07:19:32 PM 14.2518 -88.3923 279° West  Level Estimated
Sat 07:20:32 PM 14.2615 -88.4525 279° West  Level Estimated
Sat 07:21:32 PM 14.2711 -88.5127 279° West  Level Estimated
Sat 07:22:32 PM 14.2807 -88.5729 279° West  Level Estimated
Sat 07:23:32 PM 14.2902 -88.6332 279° West  Level Estimated
Sat 07:24:32 PM 14.2998 -88.6934 279° West  Level Estimated
Sat 07:25:32 PM 14.3094 -88.7536 279° West  Level Estimated
Sat 07:26:32 PM 14.3189 -88.8139 279° West  Level Estimated
Sat 07:27:32 PM 14.3284 -88.8741 279° West  Level Estimated
Sat 07:28:32 PM 14.3379 -88.9344 279° West  Level Estimated
Sat 07:29:32 PM 14.3474 -88.9946 279° West  Level Estimated
Sat 07:30:32 PM 14.3569 -89.0549 279° West  Level Estimated
Sat 07:31:32 PM 14.3663 -89.1152 279° West  Level Estimated
Sat 07:32:32 PM 14.3757 -89.1755 279° West  Level Estimated
Sat 07:33:32 PM 14.3852 -89.2357 279° West  Level Estimated
Sat 07:34:32 PM 14.3946 -89.2960 279° West  Level Estimated
Sat 07:35:32 PM 14.4040 -89.3563 279° West  Level Estimated
Sat 07:36:32 PM 14.4134 -89.4166 279° West  Level Estimated
Sat 07:37:32 PM 14.4227 -89.4769 279° West  Level Estimated
Sat 07:38:32 PM 14.4321 -89.5372 279° West  Level Estimated
Sat 07:39:32 PM 14.4414 -89.5975 279° West  Level Estimated
Sat 07:40:32 PM 14.4507 -89.6578 279° West  Level Estimated
Sat 07:41:32 PM 14.4600 -89.7181 279° West  Level Estimated
Sat 07:42:32 PM 14.4693 -89.7785 279° West  Level Estimated
Sat 07:43:32 PM 14.4786 -89.8388 279° West  Level Estimated
Sat 07:44:32 PM 14.4878 -89.8991 279° West  Level Estimated
Sat 07:45:32 PM 14.4971 -89.9595 279° West  Level Estimated
Sat 07:46:32 PM 14.5063 -90.0198 279° West  Level Estimated
Sat 07:47:32 PM 14.5155 -90.0801 279° West  Level Estimated
Sat 07:48:32 PM 14.5247 -90.1405 279° West  Level Estimated
Sat 07:49:32 PM 14.5339 -90.2009 279° West  Level Estimated
Sat 07:50:32 PM 14.5430 -90.2612 279° West  Level Estimated
Sat 07:51:32 PM 14.5522 -90.3216 279° West  Level Estimated
Sat 07:52:32 PM 14.5613 -90.3820 279° West  Level Estimated
Sat 07:53:32 PM 14.5704 -90.4423 279° West  Level Estimated
Sat 07:54:32 PM 14.5795 -90.5027 279° West  Level Estimated
Sat 07:55:32 PM 14.5886 -90.5631 99° East  Level Estimated
Sat 07:56:32 PM 14.5795 -90.5027 279° West  Level Estimated
Sat 07:57:32 PM 14.5886 -90.5631 99° East  Level Estimated
Sat 07:58:32 PM 14.5795 -90.5027 279° West  Level Estimated
Sat 07:59:32 PM 14.5886 -90.5631 99° East  Level Estimated
Sat 08:00:32 PM 14.5795 -90.5027 279° West  Level Estimated
Sat 08:01:32 PM 14.5886 -90.5631 99° East  Level Estimated
Sat 08:02:32 PM 14.5795 -90.5027 279° West  Level Estimated
Sat 08:03:32 PM 14.5886 -90.5631 99° East  Level Estimated
Sat 08:04:32 PM 14.5795 -90.5027 279° West  Level Estimated
Sat 08:05:32 PM 14.5886 -90.5631 99° East  Level Estimated
Sat 08:06:32 PM 14.5795 -90.5027 279° West  Level Estimated

Login

Don't have an account? Register now (free) for customized features, flight alerts, and more!